createdAt,value
2019-04-26T00:01:38.595Z,19.52
2019-04-26T00:04:07.710Z,19.55
2019-04-26T00:06:37.277Z,19.53
2019-04-26T00:09:27.247Z,19.54
2019-04-26T00:12:03.083Z,19.54
2019-04-26T00:14:42.110Z,19.53
2019-04-26T00:17:12.171Z,19.49
2019-04-26T00:19:39.960Z,19.48
2019-04-26T00:22:08.974Z,19.80
2019-04-26T00:24:37.773Z,19.47
2019-04-26T00:27:06.212Z,19.48
2019-04-26T00:29:34.624Z,19.50
2019-04-26T00:32:03.116Z,19.53
2019-04-26T00:34:31.556Z,19.55
2019-04-26T00:36:59.971Z,19.60
2019-04-26T00:39:28.596Z,19.66
2019-04-26T00:41:57.765Z,19.68
2019-04-26T00:44:26.357Z,19.71
2019-04-26T00:46:57.004Z,19.76
2019-04-26T00:49:26.273Z,19.74
2019-04-26T00:51:55.235Z,19.74
2019-04-26T00:54:25.593Z,19.74
2019-04-26T00:56:54.154Z,19.75
2019-04-26T00:59:23.273Z,20.07
2019-04-26T01:01:53.407Z,19.69
2019-04-26T01:04:22.953Z,19.60
2019-04-26T01:06:53.042Z,19.56
2019-04-26T01:09:21.916Z,19.53
2019-04-26T01:11:50.327Z,19.50
2019-04-26T01:14:19.884Z,19.47
2019-04-26T01:16:48.480Z,19.46
2019-04-26T01:19:18.649Z,19.43
2019-04-26T01:21:52.730Z,19.38
2019-04-26T01:24:24.001Z,19.29
2019-04-26T01:26:55.483Z,19.21
2019-04-26T01:29:25.978Z,19.15
2019-04-26T01:32:00.136Z,19.07
2019-04-26T01:34:29.098Z,18.91
2019-04-26T01:36:59.066Z,18.86
2019-04-26T01:39:27.980Z,18.72
2019-04-26T01:42:14.288Z,18.69
2019-04-26T01:44:53.078Z,18.63
2019-04-26T01:47:22.266Z,18.51
2019-04-26T01:49:51.172Z,18.40
2019-04-26T01:52:19.586Z,18.33
2019-04-26T01:54:48.296Z,18.25
2019-04-26T01:57:16.790Z,18.18
2019-04-26T01:59:49.977Z,18.09
2019-04-26T02:02:35.172Z,17.98
2019-04-26T02:05:07.325Z,17.93
2019-04-26T02:07:39.098Z,17.83
2019-04-26T02:10:16.480Z,17.74
2019-04-26T02:12:47.522Z,17.63
2019-04-26T02:15:18.380Z,17.57
2019-04-26T02:17:49.280Z,17.51
2019-04-26T02:20:37.062Z,17.45
2019-04-26T02:23:07.117Z,17.32
2019-04-26T02:25:35.552Z,17.20
2019-04-26T02:28:04.098Z,17.14
2019-04-26T02:30:34.664Z,17.02
2019-04-26T02:33:02.251Z,17.00
2019-04-26T02:35:32.158Z,17.29
2019-04-26T02:38:01.749Z,16.89
2019-04-26T02:40:31.689Z,16.79
2019-04-26T02:42:59.823Z,16.74
2019-04-26T02:45:44.523Z,17.02
2019-04-26T02:48:30.823Z,16.67
2019-04-26T02:51:02.570Z,16.58
2019-04-26T02:53:45.345Z,16.44
2019-04-26T02:56:30.300Z,16.43
2019-04-26T02:59:13.138Z,16.34
2019-04-26T03:01:42.233Z,16.27
2019-04-26T03:04:10.695Z,16.26
2019-04-26T03:06:42.952Z,16.19
2019-04-26T03:09:14.154Z,16.17
2019-04-26T03:11:48.471Z,16.17
2019-04-26T03:14:23.539Z,16.14
2019-04-26T03:16:56.660Z,16.15
2019-04-26T03:19:39.625Z,16.09
2019-04-26T03:22:17.189Z,16.06
2019-04-26T03:24:48.819Z,16.07
2019-04-26T03:27:33.556Z,16.01
2019-04-26T03:30:22.299Z,16.00
2019-04-26T03:33:04.290Z,16.01
2019-04-26T03:36:01.398Z,15.99
2019-04-26T03:38:51.953Z,16.02
2019-04-26T03:41:25.579Z,15.99
2019-04-26T03:43:57.037Z,16.28
2019-04-26T03:46:45.134Z,16.04
2019-04-26T03:49:29.166Z,16.02
2019-04-26T03:52:26.064Z,15.98
2019-04-26T03:54:57.617Z,15.94
2019-04-26T03:57:38.348Z,15.87
2019-04-26T04:00:10.873Z,15.83
2019-04-26T04:02:58.651Z,15.78
2019-04-26T04:05:37.266Z,15.72
2019-04-26T04:08:07.733Z,15.65
2019-04-26T04:10:44.124Z,15.60
2019-04-26T04:13:40.550Z,15.54
2019-04-26T04:16:20.154Z,15.54
2019-04-26T04:18:54.056Z,15.53
2019-04-26T04:21:29.111Z,15.52
2019-04-26T04:24:00.590Z,15.53
2019-04-26T04:26:32.071Z,15.51
2019-04-26T04:29:20.087Z,15.54
2019-04-26T04:31:57.092Z,15.52
2019-04-26T04:34:37.769Z,15.49
2019-04-26T04:37:08.545Z,15.46
2019-04-26T04:39:49.919Z,15.45
2019-04-26T04:42:41.406Z,15.43
2019-04-26T04:45:29.454Z,15.41
2019-04-26T04:48:18.709Z,15.37
2019-04-26T04:51:17.537Z,15.35
2019-04-26T04:53:49.780Z,15.35
2019-04-26T04:56:27.047Z,15.35
2019-04-26T04:59:22.732Z,15.37
2019-04-26T05:02:04.079Z,15.42
2019-04-26T05:04:38.644Z,15.40
2019-04-26T05:07:20.423Z,15.40
2019-04-26T05:10:10.071Z,15.45
2019-04-26T05:12:56.421Z,15.45
2019-04-26T05:16:03.058Z,15.44
2019-04-26T05:18:44.134Z,15.40
2019-04-26T05:21:35.944Z,15.34
2019-04-26T05:24:13.950Z,15.30
2019-04-26T05:27:29.000Z,15.26
2019-04-26T05:30:22.943Z,15.19
2019-04-26T05:33:00.370Z,15.11
2019-04-26T05:36:06.950Z,15.05
2019-04-26T05:38:41.307Z,15.05
2019-04-26T05:41:53.536Z,15.01
2019-04-26T05:45:12.537Z,15.03
2019-04-26T05:48:06.192Z,14.99
2019-04-26T05:51:15.506Z,14.95
2019-04-26T05:54:30.746Z,14.97
2019-04-26T05:57:12.342Z,14.95
2019-04-26T05:59:55.095Z,14.93
2019-04-26T06:02:33.652Z,14.97
2019-04-26T06:05:18.634Z,15.01
2019-04-26T06:08:32.229Z,15.04
2019-04-26T06:11:05.334Z,15.04
2019-04-26T06:13:52.177Z,15.04
2019-04-26T06:16:40.068Z,15.04
2019-04-26T06:19:42.679Z,15.12
2019-04-26T06:22:26.157Z,15.12
2019-04-26T06:25:14.224Z,15.16
2019-04-26T06:28:00.745Z,15.17
2019-04-26T06:30:45.017Z,15.20
2019-04-26T06:33:10.879Z,15.27
2019-04-26T06:35:43.488Z,15.29
2019-04-26T06:38:43.978Z,15.34
2019-04-26T06:41:38.870Z,15.38
2019-04-26T06:44:23.191Z,15.43
2019-04-26T06:47:04.650Z,15.41
2019-04-26T06:50:01.590Z,15.46
2019-04-26T06:52:33.080Z,15.52
2019-04-26T06:55:18.337Z,15.54
2019-04-26T06:58:14.235Z,15.62
2019-04-26T07:01:01.889Z,15.71
2019-04-26T07:03:45.200Z,15.79
2019-04-26T07:06:16.680Z,15.90
2019-04-26T07:08:57.556Z,16.02
2019-04-26T07:11:54.618Z,16.14
2019-04-26T07:14:59.285Z,16.29
2019-04-26T07:17:48.453Z,16.42
2019-04-26T07:20:23.135Z,16.58
2019-04-26T07:23:05.698Z,16.71
2019-04-26T07:26:13.789Z,16.87
2019-04-26T07:28:51.019Z,16.99
2019-04-26T07:31:31.431Z,17.10
2019-04-26T07:34:16.580Z,17.17
2019-04-26T07:37:11.398Z,17.28
2019-04-26T07:40:11.597Z,17.35
2019-04-26T07:43:01.698Z,17.42
2019-04-26T07:45:37.445Z,17.53
2019-04-26T07:48:34.683Z,17.63
2019-04-26T07:51:25.547Z,17.71
2019-04-26T07:53:59.875Z,17.77
2019-04-26T07:56:31.349Z,17.85
2019-04-26T07:59:34.073Z,17.96
2019-04-26T08:02:15.932Z,17.98
2019-04-26T08:04:47.367Z,18.09
2019-04-26T08:07:25.023Z,18.15
2019-04-26T08:10:07.969Z,18.21
2019-04-26T08:12:39.374Z,18.28
2019-04-26T08:15:16.241Z,18.28
2019-04-26T08:17:57.936Z,18.36
2019-04-26T08:20:48.366Z,18.37
2019-04-26T08:23:38.047Z,18.47
2019-04-26T08:25:50.195Z,18.78
2019-04-26T08:28:21.599Z,18.57
2019-04-26T08:30:54.286Z,18.61
2019-04-26T08:33:30.086Z,18.74
2019-04-26T08:36:00.489Z,18.74
2019-04-26T08:38:28.652Z,18.87
2019-04-26T08:41:00.476Z,19.12
2019-04-26T08:43:43.483Z,18.90
2019-04-26T08:46:18.788Z,18.88
2019-04-26T08:48:50.936Z,18.92
2019-04-26T08:51:22.117Z,18.83
2019-04-26T08:53:52.913Z,18.91
2019-04-26T08:56:24.400Z,18.92
2019-04-26T08:58:56.583Z,18.98
2019-04-26T09:01:46.734Z,18.87
2019-04-26T09:04:20.510Z,18.95
2019-04-26T09:06:55.683Z,18.75
2019-04-26T09:09:27.547Z,18.77
2019-04-26T09:11:59.758Z,18.78
2019-04-26T09:14:30.528Z,18.84
2019-04-26T09:16:58.943Z,18.95
2019-04-26T09:19:30.571Z,19.15
2019-04-26T09:22:12.201Z,19.38
2019-04-26T09:24:47.307Z,19.63
2019-04-26T09:27:21.078Z,19.92
2019-04-26T09:30:04.883Z,20.14
2019-04-26T09:32:35.915Z,20.40
2019-04-26T09:35:04.675Z,20.67
2019-04-26T09:37:33.040Z,21.32
2019-04-26T09:40:10.210Z,21.11
2019-04-26T09:42:41.029Z,21.04
2019-04-26T09:45:11.704Z,21.15
2019-04-26T09:48:00.007Z,21.06
2019-04-26T09:50:32.827Z,20.93
2019-04-26T09:53:01.343Z,21.05
2019-04-26T09:55:35.519Z,21.07
2019-04-26T09:57:59.947Z,21.20
2019-04-26T10:00:30.242Z,21.32
2019-04-26T10:02:58.840Z,21.51
2019-04-26T10:05:27.323Z,21.61
2019-04-26T10:07:55.860Z,21.71
2019-04-26T10:10:26.466Z,21.78
2019-04-26T10:12:59.228Z,22.02
2019-04-26T10:15:31.768Z,22.00
2019-04-26T10:18:01.263Z,21.96
2019-04-26T10:20:29.625Z,21.75
2019-04-26T10:22:58.055Z,21.81
2019-04-26T10:25:26.476Z,21.69
2019-04-26T10:27:55.037Z,21.68
2019-04-26T10:30:23.535Z,21.65
2019-04-26T10:32:51.949Z,21.51
2019-04-26T10:35:21.712Z,21.15
2019-04-26T10:37:52.597Z,21.08
2019-04-26T10:40:20.896Z,20.91
2019-04-26T10:42:49.345Z,20.80
2019-04-26T10:45:18.572Z,20.53
2019-04-26T10:47:47.012Z,20.57
2019-04-26T10:50:15.976Z,20.26
2019-04-26T10:52:54.261Z,20.11
2019-04-26T10:55:23.279Z,20.08
2019-04-26T10:57:56.632Z,19.95
2019-04-26T11:00:32.472Z,19.87
2019-04-26T11:03:04.456Z,20.01
2019-04-26T11:05:31.153Z,19.98
2019-04-26T11:07:59.734Z,20.03
2019-04-26T11:10:29.954Z,19.89
2019-04-26T11:12:58.442Z,19.68
2019-04-26T11:15:29.045Z,19.65
2019-04-26T11:17:56.910Z,19.56
2019-04-26T11:20:25.287Z,19.92
2019-04-26T11:22:53.841Z,19.61
2019-04-26T11:25:24.611Z,19.55
2019-04-26T11:27:52.680Z,19.53
2019-04-26T11:30:21.455Z,19.57
2019-04-26T11:32:50.249Z,19.54
2019-04-26T11:35:18.724Z,19.58
2019-04-26T11:37:50.702Z,19.50
2019-04-26T11:40:17.833Z,19.39
2019-04-26T11:42:47.334Z,19.38
2019-04-26T11:45:17.878Z,19.33
2019-04-26T11:47:55.879Z,19.31
2019-04-26T11:50:17.859Z,19.34
2019-04-26T11:52:46.816Z,19.39
2019-04-26T11:55:15.694Z,19.41
2019-04-26T11:57:47.446Z,19.45
2019-04-26T12:00:32.053Z,19.55
2019-04-26T12:03:00.480Z,19.50
2019-04-26T12:05:30.573Z,19.47
2019-04-26T12:08:06.131Z,19.54
2019-04-26T12:10:34.562Z,19.63
2019-04-26T12:13:05.852Z,19.66
2019-04-26T12:15:33.371Z,19.61
2019-04-26T12:18:05.510Z,19.62
2019-04-26T12:20:32.420Z,19.61
2019-04-26T12:23:00.839Z,19.56
2019-04-26T12:25:31.098Z,19.64
2019-04-26T12:28:02.010Z,19.82
2019-04-26T12:30:29.024Z,20.34
2019-04-26T12:32:57.437Z,20.36
2019-04-26T12:35:25.902Z,20.56
2019-04-26T12:37:54.969Z,20.75
2019-04-26T12:40:24.225Z,20.88
2019-04-26T12:42:52.981Z,21.05
2019-04-26T12:45:28.954Z,21.04
2019-04-26T12:48:07.869Z,21.16
2019-04-26T12:50:37.620Z,21.26
2019-04-26T12:53:04.484Z,21.37
2019-04-26T12:55:32.848Z,21.85
2019-04-26T12:58:01.270Z,21.61
2019-04-26T13:00:37.498Z,21.54
2019-04-26T13:03:04.993Z,21.52
2019-04-26T13:05:33.414Z,21.40
2019-04-26T13:08:02.362Z,21.22
2019-04-26T13:10:50.646Z,20.89
2019-04-26T13:13:20.720Z,20.81
2019-04-26T13:16:08.306Z,20.47
2019-04-26T13:18:36.781Z,20.34
2019-04-26T13:21:05.562Z,20.21
2019-04-26T13:23:33.997Z,20.12
2019-04-26T13:26:02.421Z,20.05
2019-04-26T13:28:30.859Z,19.92
2019-04-26T13:31:02.035Z,19.77
2019-04-26T13:33:29.447Z,19.59
2019-04-26T13:36:05.165Z,19.44
2019-04-26T13:38:28.072Z,19.23
2019-04-26T13:40:59.821Z,19.19
2019-04-26T13:43:28.538Z,19.08
2019-04-26T13:46:01.109Z,18.94
2019-04-26T13:48:33.865Z,18.83
2019-04-26T13:51:07.415Z,18.76
2019-04-26T13:53:35.841Z,18.72
2019-04-26T13:56:04.441Z,18.62
2019-04-26T13:58:32.939Z,18.59
2019-04-26T14:01:02.439Z,18.49
2019-04-26T14:03:31.590Z,18.52
2019-04-26T14:06:01.014Z,18.49
2019-04-26T14:08:29.433Z,18.51
2019-04-26T14:10:57.857Z,18.49
2019-04-26T14:13:26.293Z,18.60
2019-04-26T14:15:54.725Z,18.64
2019-04-26T14:18:23.170Z,18.75
2019-04-26T14:20:54.914Z,18.19
2019-04-26T14:23:23.388Z,18.60
2019-04-26T14:25:55.595Z,18.57
2019-04-26T14:28:25.233Z,18.38
2019-04-26T14:30:53.685Z,18.32
2019-04-26T14:33:22.123Z,18.22
2019-04-26T14:35:52.122Z,18.10
2019-04-26T14:38:27.802Z,17.97
2019-04-26T14:41:03.237Z,17.87
2019-04-26T14:43:22.280Z,17.82
2019-04-26T14:45:56.045Z,17.73
2019-04-26T14:48:35.122Z,17.61
2019-04-26T14:50:53.246Z,17.59
2019-04-26T14:53:22.110Z,17.49
2019-04-26T14:55:51.199Z,17.34
2019-04-26T14:58:23.864Z,17.20
2019-04-26T15:00:58.426Z,17.24
2019-04-26T15:03:45.151Z,17.20
2019-04-26T15:06:16.843Z,17.17
2019-04-26T15:08:48.678Z,17.10
2019-04-26T15:11:15.794Z,17.09
2019-04-26T15:13:44.246Z,17.04
2019-04-26T15:16:14.237Z,17.05
2019-04-26T15:18:43.213Z,17.18
2019-04-26T15:21:12.883Z,17.32
2019-04-26T15:23:41.456Z,17.44
2019-04-26T15:26:09.885Z,17.53
2019-04-26T15:28:38.400Z,17.46
2019-04-26T15:31:06.855Z,17.37
2019-04-26T15:33:36.069Z,17.49
2019-04-26T15:36:06.455Z,17.38
2019-04-26T15:38:41.402Z,17.28
2019-04-26T15:41:11.730Z,17.18
2019-04-26T15:43:38.802Z,16.99
2019-04-26T15:46:12.506Z,16.88
2019-04-26T15:48:42.926Z,16.76
2019-04-26T15:51:12.582Z,16.62
2019-04-26T15:53:44.878Z,16.60
2019-04-26T15:56:14.631Z,16.51
2019-04-26T15:58:45.846Z,16.49
2019-04-26T16:01:13.421Z,16.30
2019-04-26T16:03:44.593Z,16.64
2019-04-26T16:06:12.635Z,16.28
2019-04-26T16:08:43.647Z,16.24
2019-04-26T16:11:12.393Z,16.21
2019-04-26T16:13:45.251Z,16.10
2019-04-26T16:16:12.507Z,16.09
2019-04-26T16:18:40.632Z,16.35
2019-04-26T16:21:13.516Z,16.03
2019-04-26T16:23:43.202Z,15.96
2019-04-26T16:26:12.943Z,15.94
2019-04-26T16:28:44.382Z,15.90
2019-04-26T16:31:28.228Z,15.88
2019-04-26T16:33:58.324Z,15.89
2019-04-26T16:36:26.829Z,15.75
2019-04-26T16:38:57.949Z,15.77
2019-04-26T16:41:27.152Z,15.67
2019-04-26T16:43:55.536Z,15.60
2019-04-26T16:46:24.873Z,15.57
2019-04-26T16:48:55.439Z,15.57
2019-04-26T16:51:23.543Z,15.56
2019-04-26T16:54:06.292Z,15.53
2019-04-26T16:56:26.518Z,15.52
2019-04-26T16:58:54.770Z,15.51
2019-04-26T17:01:23.427Z,15.81
2019-04-26T17:03:53.477Z,15.47
2019-04-26T17:06:23.324Z,15.47
2019-04-26T17:09:00.808Z,15.42
2019-04-26T17:11:22.957Z,15.40
2019-04-26T17:13:56.626Z,15.35
2019-04-26T17:16:22.438Z,15.36
2019-04-26T17:18:51.273Z,15.70
2019-04-26T17:21:25.363Z,15.30
2019-04-26T17:24:12.211Z,15.21
2019-04-26T17:26:42.835Z,15.12
2019-04-26T17:29:10.763Z,14.99
2019-04-26T17:31:39.318Z,15.29
2019-04-26T17:34:07.779Z,14.86
2019-04-26T17:36:36.212Z,14.73
2019-04-26T17:39:11.025Z,14.64
2019-04-26T17:41:44.994Z,14.56
2019-04-26T17:44:13.120Z,13.70
2019-04-26T17:46:40.698Z,14.41
2019-04-26T17:49:10.992Z,14.33
2019-04-26T17:51:44.131Z,14.26
2019-04-26T17:54:26.497Z,14.16
2019-04-26T17:56:40.205Z,14.44
2019-04-26T17:59:13.721Z,14.08
2019-04-26T18:01:45.286Z,14.01
2019-04-26T18:04:11.263Z,11.88
2019-04-26T18:06:40.401Z,13.90
2019-04-26T18:09:13.227Z,13.86
2019-04-26T18:11:41.208Z,13.83
2019-04-26T18:14:20.865Z,13.79
2019-04-26T18:16:42.733Z,13.78
2019-04-26T18:19:42.083Z,13.78
2019-04-26T18:22:34.998Z,13.77
2019-04-26T18:25:04.359Z,13.73
2019-04-26T18:27:35.728Z,14.01
2019-04-26T18:30:06.679Z,13.72
2019-04-26T18:32:33.933Z,13.69
2019-04-26T18:35:00.719Z,13.62
2019-04-26T18:37:29.199Z,13.60
2019-04-26T18:40:02.076Z,13.58
2019-04-26T18:42:28.076Z,13.55
2019-04-26T18:44:56.519Z,13.52
2019-04-26T18:47:28.310Z,13.51
2019-04-26T18:49:58.501Z,13.49
2019-04-26T18:52:28.842Z,13.48
2019-04-26T18:55:05.800Z,13.46
2019-04-26T18:57:35.002Z,13.45
2019-04-26T19:00:06.794Z,13.43
2019-04-26T19:02:35.400Z,13.42
2019-04-26T19:05:05.513Z,13.38
2019-04-26T19:07:34.009Z,13.36
2019-04-26T19:10:05.348Z,13.35
2019-04-26T19:12:33.163Z,13.36
2019-04-26T19:15:07.551Z,13.34
2019-04-26T19:17:37.778Z,13.33
2019-04-26T19:20:26.176Z,13.32
2019-04-26T19:22:56.257Z,13.32
2019-04-26T19:25:25.442Z,13.31
2019-04-26T19:27:58.890Z,13.30
2019-04-26T19:30:25.387Z,13.33
2019-04-26T19:32:54.162Z,13.34
2019-04-26T19:35:22.809Z,13.33
2019-04-26T19:37:51.791Z,13.36
2019-04-26T19:40:20.370Z,13.34
2019-04-26T19:42:55.420Z,13.35
2019-04-26T19:46:25.319Z,13.37
2019-04-26T19:49:01.396Z,13.38
2019-04-26T19:51:34.416Z,13.43
2019-04-26T19:54:07.004Z,13.44
2019-04-26T19:56:37.108Z,13.43
2019-04-26T19:59:05.817Z,13.42
2019-04-26T20:01:34.252Z,13.45
2019-04-26T20:04:02.721Z,13.43
2019-04-26T20:06:32.248Z,13.45
2019-04-26T20:09:01.961Z,13.44
2019-04-26T20:11:31.672Z,12.97
2019-04-26T20:14:01.153Z,13.44
2019-04-26T20:16:30.286Z,13.45
2019-04-26T20:18:58.713Z,13.46
2019-04-26T20:21:27.156Z,13.44
2019-04-26T20:23:55.751Z,13.42
2019-04-26T20:26:24.294Z,13.41
2019-04-26T20:28:52.746Z,13.39
2019-04-26T20:31:37.514Z,13.38
2019-04-26T20:34:05.549Z,13.38
2019-04-26T20:36:40.660Z,13.36
2019-04-26T20:39:07.189Z,13.37
2019-04-26T20:41:35.666Z,12.91
2019-04-26T20:44:09.481Z,13.38
2019-04-26T20:46:37.738Z,13.37
2019-04-26T20:49:07.949Z,13.14
2019-04-26T20:51:34.968Z,13.40
2019-04-26T20:54:03.914Z,13.38
2019-04-26T20:56:32.460Z,13.38
2019-04-26T20:59:01.557Z,13.37
2019-04-26T21:01:32.008Z,13.39
2019-04-26T21:03:59.783Z,13.38
2019-04-26T21:06:29.237Z,13.69
2019-04-26T21:08:59.079Z,13.44
2019-04-26T21:11:30.330Z,13.41
2019-04-26T21:14:01.884Z,13.41
2019-04-26T21:16:32.366Z,13.39
2019-04-26T21:19:01.841Z,13.40
2019-04-26T21:21:32.107Z,13.41
2019-04-26T21:24:03.670Z,13.42
2019-04-26T21:26:52.769Z,13.43
2019-04-26T21:29:32.508Z,13.42
2019-04-26T21:32:02.609Z,13.39
2019-04-26T21:34:33.293Z,13.43
2019-04-26T21:37:22.153Z,13.40
2019-04-26T21:39:53.263Z,13.41
2019-04-26T21:42:25.523Z,13.41
2019-04-26T21:44:53.221Z,13.40
2019-04-26T21:47:23.174Z,13.42
2019-04-26T21:49:58.487Z,13.43
2019-04-26T21:52:27.591Z,13.44
2019-04-26T21:54:53.241Z,13.44
2019-04-26T21:57:27.843Z,13.44
2019-04-26T21:59:54.010Z,13.43
2019-04-26T22:02:25.236Z,13.44
2019-04-26T22:04:53.209Z,13.44
2019-04-26T22:07:21.737Z,13.75
2019-04-26T22:09:57.862Z,13.46
2019-04-26T22:12:27.233Z,13.43
2019-04-26T22:15:00.904Z,13.40
2019-04-26T22:17:36.529Z,13.38
2019-04-26T22:20:21.415Z,13.35
2019-04-26T22:23:03.660Z,13.33
2019-04-26T22:25:33.742Z,13.31
2019-04-26T22:28:03.358Z,13.27
2019-04-26T22:30:33.162Z,13.27
2019-04-26T22:33:03.065Z,13.30
2019-04-26T22:35:31.741Z,13.26
2019-04-26T22:38:00.304Z,13.24
2019-04-26T22:40:28.730Z,13.22
2019-04-26T22:43:05.303Z,13.25
2019-04-26T22:45:44.205Z,13.24
2019-04-26T22:48:19.417Z,13.22
2019-04-26T22:50:43.926Z,13.23
2019-04-26T22:53:12.531Z,13.23
2019-04-26T22:55:41.048Z,13.27
2019-04-26T22:58:09.541Z,13.26
2019-04-26T23:00:39.153Z,13.28
2019-04-26T23:03:07.590Z,13.29
2019-04-26T23:05:39.138Z,13.31
2019-04-26T23:08:06.473Z,13.30
2019-04-26T23:10:36.553Z,13.31
2019-04-26T23:13:15.351Z,13.27
2019-04-26T23:15:54.209Z,13.27
2019-04-26T23:18:43.769Z,13.22
2019-04-26T23:21:15.029Z,13.18
2019-04-26T23:23:44.276Z,13.15
2019-04-26T23:26:14.388Z,13.13
2019-04-26T23:28:43.383Z,13.13
2019-04-26T23:31:13.388Z,13.12
2019-04-26T23:33:42.907Z,13.09
2019-04-26T23:36:10.946Z,13.09
2019-04-26T23:38:39.485Z,13.39
2019-04-26T23:41:07.919Z,13.10
2019-04-26T23:43:36.416Z,13.07
2019-04-26T23:46:04.942Z,13.04
2019-04-26T23:48:33.380Z,13.03
2019-04-26T23:51:05.019Z,13.02
2019-04-26T23:53:33.647Z,13.01
2019-04-26T23:56:01.604Z,13.02
2019-04-26T23:58:30.037Z,13.33
